createdAt,value
2019-03-12T00:01:58.967Z,108.27
2019-03-12T00:04:39.915Z,130.03
2019-03-12T00:07:20.567Z,128.70
2019-03-12T00:10:01.250Z,123.30
2019-03-12T00:12:41.837Z,130.77
2019-03-12T00:15:22.923Z,110.37
2019-03-12T00:18:03.269Z,115.90
2019-03-12T00:20:43.903Z,117.67
2019-03-12T00:23:24.790Z,128.10
2019-03-12T00:26:05.495Z,123.47
2019-03-12T00:28:46.967Z,121.93
2019-03-12T00:31:27.376Z,121.07
2019-03-12T00:34:08.550Z,119.60
2019-03-12T00:36:49.844Z,126.80
2019-03-12T00:39:30.603Z,119.60
2019-03-12T00:42:11.617Z,132.50
2019-03-12T00:44:52.775Z,131.20
2019-03-12T00:47:33.714Z,121.40
2019-03-12T00:50:14.952Z,120.67
2019-03-12T00:52:55.598Z,123.70
2019-03-12T00:55:36.107Z,107.10
2019-03-12T00:58:17.253Z,142.10
2019-03-12T01:00:58.206Z,142.43
2019-03-12T01:03:39.165Z,129.67
2019-03-12T01:06:20.716Z,122.50
2019-03-12T01:09:01.956Z,117.47
2019-03-12T01:11:43.037Z,106.47
2019-03-12T01:14:23.929Z,115.43
2019-03-12T01:17:05.195Z,117.83
2019-03-12T01:19:45.860Z,105.17
2019-03-12T01:22:26.586Z,111.77
2019-03-12T01:25:07.334Z,102.27
2019-03-12T01:27:48.709Z,116.50
2019-03-12T01:30:30.021Z,132.83
2019-03-12T01:33:10.966Z,124.33
2019-03-12T01:35:52.548Z,128.77
2019-03-12T01:38:33.525Z,120.03
2019-03-12T01:41:14.825Z,117.00
2019-03-12T01:43:55.750Z,120.60
2019-03-12T01:46:36.703Z,110.93
2019-03-12T01:49:17.694Z,108.30
2019-03-12T01:51:58.648Z,115.13
2019-03-12T01:54:39.015Z,111.17
2019-03-12T01:57:20.568Z,104.13
2019-03-12T02:00:01.559Z,106.33
2019-03-12T02:02:44.386Z,107.33
2019-03-12T02:05:25.160Z,113.67
2019-03-12T02:08:06.128Z,101.27
2019-03-12T02:10:46.998Z,95.67
2019-03-12T02:13:28.284Z,92.03
2019-03-12T02:16:09.180Z,97.27
2019-03-12T02:18:50.012Z,96.07
2019-03-12T02:21:31.121Z,94.23
2019-03-12T02:24:12.089Z,93.70
2019-03-12T02:26:53.380Z,94.13
2019-03-12T02:29:34.309Z,83.77
2019-03-12T02:32:15.609Z,86.07
2019-03-12T02:34:56.705Z,84.43
2019-03-12T02:37:38.178Z,75.87
2019-03-12T02:40:19.749Z,89.43
2019-03-12T02:43:01.028Z,82.40
2019-03-12T02:45:42.339Z,84.07
2019-03-12T02:48:23.612Z,104.07
2019-03-12T02:51:04.496Z,84.60
2019-03-12T02:53:45.436Z,79.87
2019-03-12T02:56:27.160Z,81.77
2019-03-12T02:59:08.080Z,89.13
2019-03-12T03:01:49.116Z,87.40
2019-03-12T03:04:30.459Z,81.67
2019-03-12T03:07:11.735Z,86.47
2019-03-12T03:09:53.528Z,89.33
2019-03-12T03:12:34.602Z,89.63
2019-03-12T03:15:15.750Z,83.47
2019-03-12T03:17:56.773Z,83.83
2019-03-12T03:20:38.169Z,78.40
2019-03-12T03:23:19.105Z,82.47
2019-03-12T03:25:59.999Z,79.93
2019-03-12T03:28:41.517Z,77.67
2019-03-12T03:31:22.826Z,76.73
2019-03-12T03:34:03.966Z,81.03
2019-03-12T03:36:44.638Z,79.87
2019-03-12T03:39:26.101Z,80.10
2019-03-12T03:42:07.106Z,79.50
2019-03-12T03:44:48.552Z,79.20
2019-03-12T03:47:29.138Z,78.80
2019-03-12T03:50:09.902Z,80.97
2019-03-12T03:52:51.134Z,81.80
2019-03-12T03:55:32.407Z,79.00
2019-03-12T03:58:13.047Z,79.87
2019-03-12T04:00:54.696Z,78.23
2019-03-12T04:03:35.678Z,81.17
2019-03-12T04:06:16.220Z,70.27
2019-03-12T04:08:56.999Z,74.97
2019-03-12T04:11:38.577Z,77.47
2019-03-12T04:14:20.369Z,74.07
2019-03-12T04:19:45.848Z,85.53
2019-03-12T04:22:27.115Z,76.03
2019-03-12T04:25:08.186Z,79.43
2019-03-12T04:27:49.043Z,74.13
2019-03-12T04:30:30.335Z,84.57
2019-03-12T04:33:11.381Z,90.67
2019-03-12T04:35:52.274Z,78.97
2019-03-12T04:38:33.508Z,75.67
2019-03-12T04:41:14.920Z,80.17
2019-03-12T04:43:56.110Z,71.30
2019-03-12T04:52:18.476Z,78.53
2019-03-12T04:54:59.537Z,80.13
2019-03-12T04:57:41.447Z,75.57
2019-03-12T05:00:22.201Z,72.03
2019-03-12T05:03:02.950Z,78.40
2019-03-12T05:05:43.706Z,76.03
2019-03-12T05:08:24.838Z,79.47
2019-03-12T05:11:05.864Z,74.77
2019-03-12T05:13:47.046Z,74.30
2019-03-12T05:16:27.741Z,75.87
2019-03-12T05:19:08.509Z,77.20
2019-03-12T05:21:49.540Z,75.23
2019-03-12T05:24:30.324Z,73.47
2019-03-12T05:27:10.722Z,75.20
2019-03-12T05:29:51.686Z,73.37
2019-03-12T05:32:32.580Z,72.55
2019-03-12T05:35:13.844Z,71.62
2019-03-12T05:37:54.627Z,75.10
2019-03-12T05:40:35.055Z,71.20
2019-03-12T05:43:15.030Z,74.23
2019-03-12T05:45:55.764Z,69.93
2019-03-12T05:48:35.929Z,72.37
2019-03-12T05:51:16.686Z,72.47
2019-03-12T05:53:57.840Z,71.53
2019-03-12T05:56:39.291Z,70.83
2019-03-12T05:59:21.402Z,71.13
2019-03-12T06:02:02.200Z,73.33
2019-03-12T06:04:42.921Z,68.43
2019-03-12T06:07:24.507Z,68.67
2019-03-12T06:10:05.066Z,68.60
2019-03-12T06:12:45.457Z,72.45
2019-03-12T06:15:25.704Z,66.60
2019-03-12T06:18:10.155Z,71.77
2019-03-12T06:20:50.937Z,70.03
2019-03-12T06:23:34.596Z,68.13
2019-03-12T06:26:15.373Z,61.83
2019-03-12T06:28:57.434Z,60.60
2019-03-12T06:31:37.961Z,61.60
2019-03-12T06:34:19.062Z,64.35
2019-03-12T06:37:02.160Z,63.33
2019-03-12T06:39:43.203Z,63.98
2019-03-12T06:42:23.655Z,62.43
2019-03-12T06:45:04.181Z,64.67
2019-03-12T06:47:46.583Z,62.27
2019-03-12T06:50:28.425Z,64.25
2019-03-12T06:53:08.633Z,65.92
2019-03-12T06:55:49.219Z,66.73
2019-03-12T06:58:29.709Z,61.40
2019-03-12T07:01:10.031Z,62.63
2019-03-12T07:03:52.013Z,66.12
2019-03-12T07:06:33.469Z,67.87
2019-03-12T07:09:14.871Z,63.52
2019-03-12T07:11:55.254Z,62.37
2019-03-12T07:14:35.355Z,68.55
2019-03-12T07:17:15.327Z,61.63
2019-03-12T07:19:55.808Z,63.78
2019-03-12T07:22:35.804Z,63.52
2019-03-12T07:25:16.127Z,64.63
2019-03-12T07:27:57.527Z,61.50
2019-03-12T07:30:39.403Z,56.15
2019-03-12T07:33:20.058Z,61.58
2019-03-12T07:36:00.833Z,63.65
2019-03-12T07:38:41.226Z,63.23
2019-03-12T07:46:28.381Z,65.62
2019-03-12T07:49:08.796Z,62.83
2019-03-12T07:51:48.935Z,64.17
2019-03-12T07:54:32.803Z,65.67
2019-03-12T07:57:13.271Z,64.20
2019-03-12T08:02:38.389Z,65.50
2019-03-12T08:05:18.796Z,67.50
2019-03-12T08:07:59.706Z,66.00
2019-03-12T08:10:40.268Z,68.20
2019-03-12T08:13:20.917Z,65.37
2019-03-12T08:16:00.967Z,69.47
2019-03-12T08:18:41.329Z,78.37
2019-03-12T08:21:22.639Z,70.30
2019-03-12T08:24:03.114Z,73.00
2019-03-12T08:26:43.558Z,69.17
2019-03-12T08:29:24.426Z,69.63
2019-03-12T08:32:05.245Z,70.53
2019-03-12T08:34:46.332Z,66.53
2019-03-12T08:37:26.674Z,68.43
2019-03-12T08:40:06.685Z,65.43
2019-03-12T08:42:54.478Z,67.50
2019-03-12T08:45:28.381Z,64.77
2019-03-12T08:48:08.759Z,69.27
2019-03-12T08:50:48.895Z,68.10
2019-03-12T08:53:28.966Z,66.13
2019-03-12T08:56:10.401Z,68.97
2019-03-12T08:58:52.607Z,68.93
2019-03-12T09:01:35.756Z,64.30
2019-03-12T09:04:18.398Z,62.98
2019-03-12T09:07:05.049Z,68.77
2019-03-12T09:09:45.511Z,67.63
2019-03-12T09:12:26.238Z,63.90
2019-03-12T09:17:54.898Z,62.53
2019-03-12T09:20:34.935Z,61.00
2019-03-12T09:23:15.079Z,62.37
2019-03-12T09:25:55.232Z,56.60
2019-03-12T09:28:36.212Z,54.58
2019-03-12T09:31:16.350Z,57.65
2019-03-12T09:33:56.602Z,55.63
2019-03-12T09:36:37.098Z,53.57
2019-03-12T09:39:17.071Z,54.83
2019-03-12T09:41:57.071Z,54.37
2019-03-12T09:44:37.420Z,55.20
2019-03-12T09:47:17.265Z,58.47
2019-03-12T09:49:58.134Z,62.73
2019-03-12T09:52:38.932Z,51.37
2019-03-12T09:55:21.908Z,57.07
2019-03-12T09:58:02.957Z,50.95
2019-03-12T10:00:43.537Z,53.57
2019-03-12T10:03:23.475Z,53.20
2019-03-12T10:06:04.128Z,51.65
2019-03-12T10:08:44.200Z,48.83
2019-03-12T10:11:24.399Z,54.77
2019-03-12T10:14:04.627Z,53.10
2019-03-12T10:16:45.187Z,55.83
2019-03-12T10:19:26.083Z,56.37
2019-03-12T10:22:06.293Z,59.57
2019-03-12T10:24:47.024Z,62.33
2019-03-12T10:27:27.190Z,54.93
2019-03-12T10:30:07.235Z,61.30
2019-03-12T10:32:47.862Z,61.23
2019-03-12T10:35:28.117Z,56.83
2019-03-12T10:38:11.867Z,59.43
2019-03-12T10:40:54.348Z,59.93
2019-03-12T10:43:36.423Z,63.23
2019-03-12T10:46:26.421Z,64.03
2019-03-12T10:48:58.208Z,62.70
2019-03-12T10:51:28.765Z,66.70
2019-03-12T10:53:59.511Z,63.87
2019-03-12T10:56:29.861Z,60.67
2019-03-12T10:59:02.090Z,63.20
2019-03-12T11:01:32.341Z,62.83
2019-03-12T11:04:02.595Z,69.23
2019-03-12T11:06:32.741Z,64.37
2019-03-12T11:09:06.680Z,62.37
2019-03-12T11:11:36.269Z,65.63
2019-03-12T11:14:06.166Z,64.00
2019-03-12T11:16:35.526Z,59.33
2019-03-12T11:19:04.519Z,62.40
2019-03-12T11:21:34.399Z,61.80
2019-03-12T11:24:04.435Z,60.70
2019-03-12T11:26:34.273Z,61.00
2019-03-12T11:29:03.628Z,60.93
2019-03-12T11:31:32.994Z,64.53
2019-03-12T11:34:02.609Z,64.07
2019-03-12T11:36:32.190Z,58.47
2019-03-12T11:39:01.962Z,64.13
2019-03-12T11:41:31.783Z,66.27
2019-03-12T11:44:01.845Z,64.23
2019-03-12T11:46:41.823Z,68.47
2019-03-12T11:49:02.009Z,58.60
2019-03-12T11:51:32.174Z,62.67
2019-03-12T11:54:02.517Z,77.60
2019-03-12T11:56:32.613Z,65.43
2019-03-12T11:59:05.019Z,65.83
2019-03-12T12:01:35.786Z,65.83
2019-03-12T12:04:06.035Z,65.30
2019-03-12T12:06:36.457Z,64.80
2019-03-12T12:09:06.513Z,69.83
2019-03-12T12:11:36.906Z,68.57
2019-03-12T12:14:07.304Z,75.97
2019-03-12T12:16:37.367Z,70.33
2019-03-12T12:19:09.696Z,71.57
2019-03-12T12:21:39.867Z,84.80
2019-03-12T12:24:09.759Z,80.57
2019-03-12T12:26:39.705Z,97.73
2019-03-12T12:29:09.988Z,81.63
2019-03-12T12:31:47.175Z,80.77
2019-03-12T12:34:21.025Z,87.60
2019-03-12T12:36:55.149Z,81.17
2019-03-12T12:39:30.747Z,81.53
2019-03-12T12:42:04.515Z,94.17
2019-03-12T12:44:39.439Z,106.00
2019-03-12T12:47:17.121Z,111.27
2019-03-12T12:49:50.864Z,126.67
2019-03-12T12:52:20.327Z,118.07
2019-03-12T12:54:49.377Z,112.00
2019-03-12T12:58:00.641Z,119.43
2019-03-12T13:00:29.950Z,121.63
2019-03-12T13:02:59.069Z,118.53
2019-03-12T13:05:28.323Z,126.63
2019-03-12T13:10:36.025Z,114.50
2019-03-12T13:13:05.314Z,109.57
2019-03-12T13:15:34.831Z,112.33
2019-03-12T13:18:04.281Z,108.80
2019-03-12T13:20:34.046Z,105.27
2019-03-12T13:23:03.354Z,111.50
2019-03-12T13:25:32.876Z,113.30
2019-03-12T13:28:02.165Z,120.20
2019-03-12T13:30:31.445Z,116.70
2019-03-12T13:33:01.082Z,112.73
2019-03-12T13:35:30.477Z,122.83
2019-03-12T13:37:59.569Z,108.10
2019-03-12T13:40:28.919Z,102.03
2019-03-12T13:42:58.389Z,103.87
2019-03-12T13:45:28.020Z,100.30
2019-03-12T13:47:57.449Z,97.93
2019-03-12T13:50:26.510Z,98.50
2019-03-12T13:52:55.957Z,100.27
2019-03-12T13:55:25.513Z,105.13
2019-03-12T13:57:55.437Z,112.07
2019-03-12T14:00:25.549Z,106.80
2019-03-12T14:02:55.035Z,105.20
2019-03-12T14:05:24.527Z,109.07
2019-03-12T14:07:54.643Z,114.63
2019-03-12T14:10:23.965Z,119.10
2019-03-12T14:12:52.843Z,120.00
2019-03-12T14:15:22.319Z,114.00
2019-03-12T14:17:51.648Z,117.03
2019-03-12T14:20:21.190Z,116.83
2019-03-12T14:22:50.659Z,124.57
2019-03-12T14:25:20.193Z,141.20
2019-03-12T14:27:49.677Z,135.53
2019-03-12T14:30:19.087Z,126.77
2019-03-12T14:32:48.485Z,131.00
2019-03-12T14:35:17.987Z,135.07
2019-03-12T14:37:47.719Z,124.80
2019-03-12T14:40:17.761Z,121.83
2019-03-12T14:42:46.904Z,127.10
2019-03-12T14:45:16.415Z,122.93
2019-03-12T14:47:45.717Z,124.17
2019-03-12T14:50:15.020Z,118.73
2019-03-12T14:52:44.521Z,128.73
2019-03-12T14:55:14.035Z,139.47
2019-03-12T14:57:43.742Z,133.33
2019-03-12T15:00:13.260Z,131.83
2019-03-12T15:02:42.737Z,136.13
2019-03-12T15:05:12.281Z,124.57
2019-03-12T15:07:42.298Z,127.00
2019-03-12T15:10:11.875Z,125.63
2019-03-12T15:12:41.795Z,117.77
2019-03-12T15:15:11.331Z,120.30
2019-03-12T15:17:41.343Z,117.70
2019-03-12T15:20:10.926Z,104.03
2019-03-12T15:22:40.541Z,103.73
2019-03-12T15:25:10.127Z,113.67
2019-03-12T15:27:39.652Z,118.30
2019-03-12T15:30:08.732Z,119.63
2019-03-12T15:32:38.070Z,116.07
2019-03-12T15:35:07.539Z,113.63
2019-03-12T15:37:37.299Z,120.27
2019-03-12T15:40:06.784Z,119.10
2019-03-12T15:42:36.641Z,121.30
2019-03-12T15:45:06.163Z,120.03
2019-03-12T15:47:38.727Z,115.80
2019-03-12T15:50:09.658Z,112.73
2019-03-12T16:07:52.556Z,98.60
2019-03-12T16:10:22.339Z,88.93
2019-03-12T16:12:51.633Z,96.30
2019-03-12T16:15:21.128Z,92.80
2019-03-12T16:17:50.869Z,84.40
2019-03-12T16:20:20.168Z,79.47
2019-03-12T16:22:49.671Z,80.10
2019-03-12T16:25:18.732Z,76.13
2019-03-12T16:27:47.977Z,77.90
2019-03-12T16:30:17.365Z,73.70
2019-03-12T16:32:47.943Z,73.07
2019-03-12T16:35:22.566Z,77.17
2019-03-12T16:37:54.664Z,72.27
2019-03-12T16:40:24.796Z,73.90
2019-03-12T16:42:54.079Z,71.33
2019-03-12T16:45:23.385Z,73.37
2019-03-12T16:47:57.096Z,73.33
2019-03-12T16:50:33.804Z,73.60
2019-03-12T16:53:05.520Z,75.17
2019-03-12T16:55:39.973Z,75.07
2019-03-12T16:58:11.288Z,71.00
2019-03-12T17:00:45.479Z,65.93
2019-03-12T17:03:23.397Z,65.73
2019-03-12T17:05:58.730Z,67.50
2019-03-12T17:08:34.166Z,73.77
2019-03-12T17:11:10.396Z,68.00
2019-03-12T17:13:47.699Z,67.13
2019-03-12T17:16:23.724Z,67.33
2019-03-12T17:18:56.943Z,73.57
2019-03-12T17:21:32.744Z,72.27
2019-03-12T17:24:10.732Z,66.30
2019-03-12T17:26:47.983Z,67.37
2019-03-12T17:29:27.581Z,67.37
2019-03-12T17:34:41.711Z,66.67
2019-03-12T17:37:17.060Z,65.90
2019-03-12T17:39:50.058Z,75.97
2019-03-12T17:42:21.021Z,60.10
2019-03-12T17:44:51.604Z,65.37
2019-03-12T17:47:21.824Z,63.20
2019-03-12T17:49:51.768Z,58.37
2019-03-12T17:52:21.819Z,60.47
2019-03-12T17:54:51.512Z,63.33
2019-03-12T17:57:22.476Z,58.80
2019-03-12T17:59:52.233Z,60.33
2019-03-12T18:02:22.617Z,58.83
2019-03-12T18:04:53.026Z,55.33
2019-03-12T18:07:23.421Z,59.83
2019-03-12T18:09:53.233Z,52.60
2019-03-12T18:12:23.906Z,57.23
2019-03-12T18:14:53.862Z,58.70
2019-03-12T18:17:24.384Z,58.90
2019-03-12T18:19:54.474Z,56.03
2019-03-12T18:22:25.248Z,55.77
2019-03-12T18:24:55.032Z,54.57
2019-03-12T18:27:25.020Z,53.10
2019-03-12T18:29:54.784Z,54.20
2019-03-12T18:32:25.497Z,49.00
2019-03-12T18:34:55.396Z,50.13
2019-03-12T18:37:26.355Z,51.40
2019-03-12T18:39:57.017Z,60.53
2019-03-12T18:42:27.372Z,52.90
2019-03-12T18:44:57.576Z,59.87
2019-03-12T18:47:27.340Z,56.50
2019-03-12T18:49:57.016Z,57.70
2019-03-12T18:52:27.480Z,58.10
2019-03-12T18:54:57.479Z,54.67
2019-03-12T18:57:27.258Z,49.57
2019-03-12T18:59:57.415Z,55.83
2019-03-12T19:02:27.441Z,55.90
2019-03-12T19:04:57.816Z,54.13
2019-03-12T19:07:27.635Z,54.40
2019-03-12T19:09:58.208Z,56.73
2019-03-12T19:12:28.054Z,61.90
2019-03-12T19:14:57.414Z,54.00
2019-03-12T19:17:27.357Z,55.60
2019-03-12T19:19:57.408Z,55.40
2019-03-12T19:22:27.486Z,60.97
2019-03-12T19:24:57.703Z,61.10
2019-03-12T19:27:28.220Z,61.07
2019-03-12T19:29:58.298Z,57.87
2019-03-12T19:32:28.757Z,59.30
2019-03-12T19:34:58.957Z,57.33
2019-03-12T19:37:29.501Z,55.77
2019-03-12T19:39:59.971Z,52.97
2019-03-12T19:42:30.296Z,56.93
2019-03-12T19:44:59.663Z,51.10
2019-03-12T19:47:30.455Z,52.33
2019-03-12T19:50:00.926Z,52.23
2019-03-12T19:52:30.939Z,50.23
2019-03-12T19:55:01.535Z,50.03
2019-03-12T19:57:31.421Z,51.37
2019-03-12T20:00:01.220Z,51.73
2019-03-12T20:02:30.726Z,44.97
2019-03-12T20:05:00.536Z,47.67
2019-03-12T20:07:30.798Z,50.20
2019-03-12T20:10:00.815Z,49.87
2019-03-12T20:12:31.128Z,48.77
2019-03-12T20:15:01.333Z,44.50
2019-03-12T20:17:31.422Z,43.40
2019-03-12T20:20:01.498Z,45.67
2019-03-12T20:22:31.325Z,42.23
2019-03-12T20:25:01.711Z,43.43
2019-03-12T20:27:32.388Z,42.33
2019-03-12T20:30:02.139Z,40.63
2019-03-12T20:32:31.733Z,48.70
2019-03-12T20:35:05.000Z,39.13
2019-03-12T20:37:33.130Z,46.57
2019-03-12T20:40:02.534Z,45.90
2019-03-12T20:42:32.871Z,42.83
2019-03-12T20:45:02.616Z,43.93
2019-03-12T20:47:33.372Z,37.83
2019-03-12T20:50:03.487Z,47.97
2019-03-12T20:52:33.311Z,40.80
2019-03-12T20:55:03.176Z,43.90
2019-03-12T20:57:33.377Z,43.17
2019-03-12T21:00:03.059Z,38.70
2019-03-12T21:02:33.234Z,41.97
2019-03-12T21:05:03.335Z,38.37
2019-03-12T21:07:33.126Z,38.07
2019-03-12T21:10:03.164Z,41.83
2019-03-12T21:12:33.187Z,41.67
2019-03-12T21:15:03.260Z,40.03
2019-03-12T21:17:33.083Z,40.77
2019-03-12T21:20:03.110Z,38.13
2019-03-12T21:22:33.853Z,41.47
2019-03-12T21:25:04.160Z,48.27
2019-03-12T21:27:33.985Z,36.93
2019-03-12T21:30:04.060Z,38.83
2019-03-12T21:32:34.222Z,39.77
2019-03-12T21:35:04.721Z,38.50
2019-03-12T21:37:35.267Z,42.13
2019-03-12T21:40:05.308Z,41.40
2019-03-12T21:42:35.482Z,39.00
2019-03-12T21:45:06.151Z,39.63
2019-03-12T21:47:35.660Z,34.43
2019-03-12T21:50:05.377Z,34.20
2019-03-12T21:52:35.412Z,37.43
2019-03-12T21:55:05.251Z,39.83
2019-03-12T21:57:35.264Z,37.37
2019-03-12T22:00:05.021Z,36.63
2019-03-12T22:02:35.450Z,39.50
2019-03-12T22:05:05.820Z,39.40
2019-03-12T22:07:36.608Z,38.43
2019-03-12T22:10:06.942Z,38.80
2019-03-12T22:12:36.705Z,40.53
2019-03-12T22:15:06.877Z,37.03
2019-03-12T22:17:36.543Z,38.47
2019-03-12T22:20:07.014Z,39.10
2019-03-12T22:22:36.822Z,39.07
2019-03-12T22:25:06.784Z,37.87
2019-03-12T22:27:36.654Z,41.83
2019-03-12T22:30:06.346Z,42.90
2019-03-12T22:32:36.699Z,44.30
2019-03-12T22:35:06.862Z,42.77
2019-03-12T22:37:36.614Z,42.23
2019-03-12T22:40:06.071Z,41.57
2019-03-12T22:42:36.436Z,40.20
2019-03-12T22:45:06.505Z,43.33
2019-03-12T22:47:36.628Z,41.77
2019-03-12T22:50:06.297Z,42.10
2019-03-12T22:52:36.374Z,40.80
2019-03-12T22:55:06.447Z,37.73
2019-03-12T22:57:35.809Z,40.30
2019-03-12T23:00:06.036Z,41.10
2019-03-12T23:02:36.005Z,44.57
2019-03-12T23:05:05.890Z,42.63
2019-03-12T23:07:35.630Z,36.33
2019-03-12T23:10:05.332Z,43.30
2019-03-12T23:12:35.936Z,38.93
2019-03-12T23:15:05.555Z,41.27
2019-03-12T23:17:35.318Z,48.37
2019-03-12T23:20:05.026Z,42.13
2019-03-12T23:22:35.322Z,39.07
2019-03-12T23:25:05.506Z,44.73
2019-03-12T23:27:35.270Z,36.77
2019-03-12T23:30:04.752Z,39.20
2019-03-12T23:32:34.837Z,39.23
2019-03-12T23:35:04.868Z,39.67
2019-03-12T23:37:34.357Z,39.10
2019-03-12T23:40:04.059Z,45.20
2019-03-12T23:42:34.155Z,43.87
2019-03-12T23:45:04.544Z,40.03
2019-03-12T23:47:34.654Z,40.83
2019-03-12T23:50:04.606Z,41.37
2019-03-12T23:52:34.464Z,40.97
2019-03-12T23:55:04.568Z,44.20
